Gakona, AK (99586)

4:09 AM AKDT on September 02, 2015 (GMT -0800)
Copper Bluff Subdivision | | Change Station
CLOSE
Current Station
Personal Weather Station
Location: Gakona, AK
Elevation: 1625 ft
Nearby Weather Stations

Elev 1625 ft 62.29 °N, 145.34 °W | Updated 14 minutes ago

Clear
Clear
35.9 °F
Feels Like 29 °F
N
10.0
Wind Variable Wind from WNW
Gusts 16.0 mph

Today
High -- | Low -- °F
--% Chance of Precip.
Yesterday
High -- | Low -- °F
Precip. -- in
6:32 AM 8:47 PM
Waning Gibbous, 81% visible
Pressure 30.15 in
Visibility 10.0 miles
Clouds Clear
Windchill 29 °F
Dew Point 28 °F
Humidity 72%
Rainfall 0.00 in
Snow Depth Not available.
UV 0.0 out of 12
Pollen Not available.
Air Quality Not available.
Flu Activity Not available.
METAR PAGK 021153Z AUTO 31005KT 10SM CLR 02/M04 A3010 RMK AO2 SLP208 T00221039 10061 20022 53008 TSNO $
Pressure 30.15 in
Visibility 10.0 miles
Clouds Clear
Windchill 29 °F
Dew Point 28 °F
Humidity 72%
Rainfall 0.00 in
Snow Depth Not available.
UV 0.0 out of 12
Pollen Not available.
Air Quality Not available.
Flu Activity Not available.
METAR PAGK 021153Z AUTO 31005KT 10SM CLR 02/M04 A3010 RMK AO2 SLP208 T00221039 10061 20022 53008 TSNO $

10-Day Weather Forecast

×

Almanac

Astronomy

Sep. 02, 2015 Rise Set
Actual Time
Civil Twilight
Nautical Twilight
Astronomical Twilight
Moon
Length of Visible Light
Length of Day
Tomorrow will be .
, % of the Moon is Illuminated

Today's Extremes

State Highs State Lows

Community

WunderPhotos

Upload Photos

1,851,736 photos uploaded!

WunderBlogs® & News

Nearby

Air Quality

  Air Quality AQ Index Pollutant
Not available.

Snow Depth

Station Depth Elevation

Earthquake Activity

City Distance Mag. Time & Date
Minimum magnitude displayed is 2.5.

Coastal Water Temperatures

Place Temperature

Stations

Nearby Weather Stations

Station Location Temp. Windchill Dew Point Humidity Wind Precip. Elev Updated Type